createdAt,value
2023-03-06T00:00:24.688Z,2.21
2023-03-06T00:02:52.178Z,2.18
2023-03-06T00:05:20.279Z,2.12
2023-03-06T00:07:46.830Z,2.12
2023-03-06T00:10:17.030Z,2.13
2023-03-06T00:12:43.592Z,2.15
2023-03-06T00:15:10.848Z,2.20
2023-03-06T00:17:38.095Z,2.13
2023-03-06T00:20:06.248Z,2.04
2023-03-06T00:22:33.095Z,1.98
2023-03-06T00:24:59.606Z,1.94
2023-03-06T00:27:26.303Z,1.99
2023-03-06T00:29:57.322Z,1.96
2023-03-06T00:32:24.375Z,2.01
2023-03-06T00:34:53.584Z,2.06
2023-03-06T00:37:22.470Z,1.98
2023-03-06T00:39:50.000Z,1.87
2023-03-06T00:42:18.362Z,1.90
2023-03-06T00:44:45.915Z,1.85
2023-03-06T00:47:13.779Z,2.02
2023-03-06T00:49:40.136Z,1.93
2023-03-06T00:52:07.106Z,1.92
2023-03-06T00:54:33.528Z,1.94
2023-03-06T00:57:00.073Z,1.83
2023-03-06T00:59:27.627Z,1.67
2023-03-06T01:01:54.744Z,1.73
2023-03-06T01:04:21.348Z,1.73
2023-03-06T01:06:48.391Z,1.65
2023-03-06T01:09:14.796Z,1.61
2023-03-06T01:11:42.035Z,1.53
2023-03-06T01:14:08.457Z,1.46
2023-03-06T01:16:35.209Z,1.51
2023-03-06T01:19:01.909Z,1.36
2023-03-06T01:21:28.619Z,1.36
2023-03-06T01:23:55.105Z,1.28
2023-03-06T01:26:22.125Z,1.34
2023-03-06T01:28:48.883Z,1.32
2023-03-06T01:31:15.385Z,1.18
2023-03-06T01:33:41.917Z,1.13
2023-03-06T01:36:11.275Z,1.14
2023-03-06T01:38:38.548Z,1.19
2023-03-06T01:41:05.809Z,1.15
2023-03-06T01:43:44.584Z,1.15
2023-03-06T01:46:32.631Z,1.12
2023-03-06T01:49:04.281Z,1.11
2023-03-06T01:51:35.744Z,1.09
2023-03-06T01:54:11.337Z,1.11
2023-03-06T01:56:40.584Z,1.13
2023-03-06T01:59:07.677Z,1.09
2023-03-06T02:01:35.296Z,1.11
2023-03-06T02:04:02.165Z,1.12
2023-03-06T02:06:29.022Z,1.10
2023-03-06T02:08:56.347Z,1.11
2023-03-06T02:11:25.650Z,1.15
2023-03-06T02:13:54.784Z,1.16
2023-03-06T02:16:28.015Z,1.18
2023-03-06T02:18:55.260Z,1.15
2023-03-06T02:21:25.676Z,1.22
2023-03-06T02:24:08.869Z,1.21
2023-03-06T02:26:36.878Z,1.17
2023-03-06T02:29:07.215Z,1.23
2023-03-06T02:31:35.489Z,1.22
2023-03-06T02:34:14.568Z,1.16
2023-03-06T02:36:47.220Z,1.22
2023-03-06T02:39:15.430Z,1.25
2023-03-06T02:41:41.978Z,1.27
2023-03-06T02:44:11.218Z,1.26
2023-03-06T02:46:37.730Z,1.36
2023-03-06T02:49:04.166Z,1.36
2023-03-06T02:51:30.757Z,1.33
2023-03-06T02:53:57.602Z,1.25
2023-03-06T02:56:24.186Z,1.25
2023-03-06T02:58:50.829Z,1.25
2023-03-06T03:01:17.676Z,1.24
2023-03-06T03:03:45.121Z,1.25
2023-03-06T03:06:11.813Z,1.41
2023-03-06T03:08:38.321Z,1.36
2023-03-06T03:11:05.220Z,1.48
2023-03-06T03:13:32.561Z,1.42
2023-03-06T03:16:06.179Z,1.37
2023-03-06T03:18:32.850Z,1.41
2023-03-06T03:21:00.825Z,1.44
2023-03-06T03:23:27.587Z,1.42
2023-03-06T03:25:54.780Z,1.34
2023-03-06T03:28:21.184Z,1.31
2023-03-06T03:30:48.235Z,1.28
2023-03-06T03:33:15.016Z,1.29
2023-03-06T03:35:41.853Z,1.30
2023-03-06T03:38:08.563Z,1.29
2023-03-06T03:40:34.958Z,1.29
2023-03-06T03:43:01.831Z,1.33
2023-03-06T03:45:28.297Z,1.27
2023-03-06T03:47:54.973Z,1.46
2023-03-06T03:50:21.542Z,1.36
2023-03-06T03:52:47.981Z,1.23
2023-03-06T03:55:14.992Z,1.34
2023-03-06T03:57:43.009Z,1.29
2023-03-06T04:00:14.784Z,1.34
2023-03-06T04:02:41.569Z,1.42
2023-03-06T04:05:08.612Z,1.31
2023-03-06T04:07:35.116Z,1.33
2023-03-06T04:10:02.099Z,1.32
2023-03-06T04:12:28.568Z,1.35
2023-03-06T04:14:55.111Z,1.37
2023-03-06T04:17:21.524Z,1.25
2023-03-06T04:19:47.913Z,1.30
2023-03-06T04:22:14.430Z,1.35
2023-03-06T04:24:40.821Z,1.36
2023-03-06T04:27:07.686Z,1.33
2023-03-06T04:29:34.112Z,1.25
2023-03-06T04:32:02.640Z,1.26
2023-03-06T04:34:29.047Z,1.27
2023-03-06T04:36:55.831Z,1.29
2023-03-06T04:39:23.331Z,1.24
2023-03-06T04:41:49.809Z,1.37
2023-03-06T04:44:16.613Z,1.23
2023-03-06T04:46:43.043Z,1.18
2023-03-06T04:49:09.496Z,1.17
2023-03-06T04:51:39.190Z,1.16
2023-03-06T04:54:05.800Z,1.20
2023-03-06T04:56:34.262Z,1.21
2023-03-06T04:59:01.922Z,1.30
2023-03-06T05:01:28.312Z,1.34
2023-03-06T05:03:54.868Z,1.26
2023-03-06T05:06:21.326Z,1.21
2023-03-06T05:08:47.928Z,1.33
2023-03-06T05:11:14.377Z,1.37
2023-03-06T05:13:41.052Z,1.41
2023-03-06T05:16:08.128Z,1.37
2023-03-06T05:18:35.492Z,1.31
2023-03-06T05:21:02.664Z,1.35
2023-03-06T05:23:30.642Z,1.39
2023-03-06T05:25:58.715Z,1.28
2023-03-06T05:28:25.975Z,1.27
2023-03-06T05:30:52.436Z,1.28
2023-03-06T05:33:19.245Z,1.31
2023-03-06T05:35:47.826Z,1.32
2023-03-06T05:38:15.655Z,1.27
2023-03-06T05:40:43.839Z,1.26
2023-03-06T05:43:11.841Z,1.19
2023-03-06T05:45:39.538Z,1.24
2023-03-06T05:48:06.498Z,1.24
2023-03-06T05:50:33.349Z,1.17
2023-03-06T05:52:59.748Z,1.24
2023-03-06T05:55:26.304Z,1.29
2023-03-06T05:57:53.870Z,1.16
2023-03-06T06:00:21.444Z,1.16
2023-03-06T06:02:48.224Z,1.19
2023-03-06T06:05:14.848Z,1.18
2023-03-06T06:07:42.062Z,1.21
2023-03-06T06:10:10.813Z,1.27
2023-03-06T06:12:38.050Z,1.20
2023-03-06T06:15:06.405Z,1.24
2023-03-06T06:17:32.847Z,1.27
2023-03-06T06:19:59.566Z,1.34
2023-03-06T06:22:26.015Z,1.28
2023-03-06T06:24:52.589Z,1.27
2023-03-06T06:27:18.970Z,1.41
2023-03-06T06:29:45.906Z,1.33
2023-03-06T06:32:12.332Z,1.36
2023-03-06T06:34:38.784Z,1.30
2023-03-06T06:37:05.499Z,1.25
2023-03-06T06:39:32.092Z,1.19
2023-03-06T06:42:19.472Z,1.24
2023-03-06T06:44:45.065Z,1.24
2023-03-06T06:47:22.889Z,1.20
2023-03-06T06:49:52.660Z,1.26
2023-03-06T06:52:19.114Z,1.24
2023-03-06T06:54:46.636Z,1.21
2023-03-06T06:57:13.172Z,1.27
2023-03-06T06:59:40.041Z,1.30
2023-03-06T07:02:07.111Z,1.31
2023-03-06T07:04:33.972Z,1.25
2023-03-06T07:07:01.074Z,1.26
2023-03-06T07:09:27.694Z,1.34
2023-03-06T07:11:54.190Z,1.25
2023-03-06T07:14:21.786Z,1.33
2023-03-06T07:16:48.230Z,1.25
2023-03-06T07:19:14.700Z,1.41
2023-03-06T07:21:41.192Z,1.40
2023-03-06T07:24:07.672Z,1.34
2023-03-06T07:26:34.997Z,1.30
2023-03-06T07:29:02.521Z,1.26
2023-03-06T07:31:29.114Z,1.32
2023-03-06T07:33:56.151Z,1.32
2023-03-06T07:36:23.936Z,1.44
2023-03-06T07:38:50.741Z,1.48
2023-03-06T07:41:20.438Z,1.46
2023-03-06T07:43:48.755Z,1.48
2023-03-06T07:46:15.378Z,1.59
2023-03-06T07:48:42.593Z,1.58
2023-03-06T07:51:20.750Z,1.61
2023-03-06T07:53:48.134Z,1.71
2023-03-06T07:56:14.854Z,1.88
2023-03-06T07:58:44.110Z,1.82
2023-03-06T08:01:14.301Z,1.93
2023-03-06T08:03:40.827Z,1.94
2023-03-06T08:06:16.310Z,1.95
2023-03-06T08:08:44.468Z,1.85
2023-03-06T08:11:13.331Z,1.80
2023-03-06T08:13:40.307Z,1.84
2023-03-06T08:16:07.474Z,1.78
2023-03-06T08:18:34.613Z,1.82
2023-03-06T08:21:13.116Z,1.86
2023-03-06T08:23:40.764Z,1.83
2023-03-06T08:26:12.831Z,1.84
2023-03-06T08:28:39.488Z,1.81
2023-03-06T08:31:14.705Z,1.83
2023-03-06T08:33:41.327Z,1.85
2023-03-06T08:36:07.949Z,1.91
2023-03-06T08:38:34.657Z,1.91
2023-03-06T08:41:01.331Z,1.96
2023-03-06T08:43:27.856Z,2.10
2023-03-06T08:45:56.123Z,2.19
2023-03-06T08:48:22.997Z,2.15
2023-03-06T08:50:49.639Z,2.23
2023-03-06T08:53:16.286Z,2.29
2023-03-06T08:55:42.770Z,2.32
2023-03-06T08:58:09.464Z,2.42
2023-03-06T09:00:36.764Z,2.49
2023-03-06T09:03:03.919Z,2.58
2023-03-06T09:05:30.807Z,2.67
2023-03-06T09:07:58.088Z,2.67
2023-03-06T09:10:26.237Z,2.64
2023-03-06T09:12:54.986Z,2.63
2023-03-06T09:15:22.663Z,2.68
2023-03-06T09:17:49.624Z,2.73
2023-03-06T09:20:16.922Z,2.76
2023-03-06T09:22:45.859Z,2.85
2023-03-06T09:25:14.160Z,2.86
2023-03-06T09:27:41.039Z,2.86
2023-03-06T09:30:08.492Z,2.92
2023-03-06T09:32:34.942Z,2.94
2023-03-06T09:35:01.431Z,2.95
2023-03-06T09:37:27.830Z,2.96
2023-03-06T09:39:54.283Z,2.83
2023-03-06T09:42:23.631Z,2.97
2023-03-06T09:44:55.851Z,2.92
2023-03-06T09:47:47.411Z,2.95
2023-03-06T09:50:19.609Z,3.10
2023-03-06T09:53:03.743Z,3.35
2023-03-06T09:55:37.983Z,3.50
2023-03-06T09:58:17.744Z,3.52
2023-03-06T10:00:59.321Z,3.45
2023-03-06T10:03:44.599Z,3.40
2023-03-06T10:06:14.174Z,3.30
2023-03-06T10:08:57.976Z,3.41
2023-03-06T10:11:42.843Z,3.33
2023-03-06T10:14:21.400Z,3.25
2023-03-06T10:16:48.370Z,3.22
2023-03-06T10:19:18.867Z,3.29
2023-03-06T10:21:50.883Z,3.26
2023-03-06T10:24:25.097Z,3.36
2023-03-06T10:27:14.634Z,3.36
2023-03-06T10:30:02.821Z,3.28
2023-03-06T10:32:51.068Z,3.35
2023-03-06T10:35:22.364Z,3.34
2023-03-06T10:37:49.211Z,3.31
2023-03-06T10:40:22.043Z,3.43
2023-03-06T10:42:52.062Z,3.53
2023-03-06T10:45:22.638Z,3.58
2023-03-06T10:47:49.451Z,3.67
2023-03-06T10:50:28.522Z,3.73
2023-03-06T10:53:05.531Z,3.46
2023-03-06T10:55:37.575Z,3.44
2023-03-06T10:58:32.496Z,3.61
2023-03-06T11:01:07.116Z,3.74
2023-03-06T11:03:35.707Z,3.91
2023-03-06T11:06:12.277Z,4.08
2023-03-06T11:08:41.574Z,4.17
2023-03-06T11:11:12.530Z,4.18
2023-03-06T11:13:41.864Z,4.32
2023-03-06T11:16:25.874Z,4.35
2023-03-06T11:19:05.220Z,4.50
2023-03-06T11:21:35.153Z,4.51
2023-03-06T11:24:09.150Z,4.50
2023-03-06T11:26:43.674Z,4.51
2023-03-06T11:29:38.454Z,4.54
2023-03-06T11:32:15.290Z,4.61
2023-03-06T11:34:50.571Z,4.42
2023-03-06T11:37:32.582Z,4.48
2023-03-06T11:40:11.450Z,4.59
2023-03-06T11:42:53.179Z,4.49
2023-03-06T11:45:27.429Z,4.72
2023-03-06T11:48:15.923Z,4.85
2023-03-06T11:50:49.125Z,4.98
2023-03-06T11:53:19.323Z,5.07
2023-03-06T11:56:20.204Z,5.17
2023-03-06T11:59:14.344Z,5.05
2023-03-06T12:01:50.073Z,5.12
2023-03-06T12:04:49.258Z,5.16
2023-03-06T12:07:15.602Z,5.29
2023-03-06T12:09:47.093Z,5.25
2023-03-06T12:12:37.249Z,5.21
2023-03-06T12:15:27.042Z,5.40
2023-03-06T12:18:18.047Z,5.49
2023-03-06T12:20:54.438Z,5.45
2023-03-06T12:24:03.517Z,5.50
2023-03-06T12:27:18.463Z,5.38
2023-03-06T12:29:44.940Z,4.94
2023-03-06T12:32:40.898Z,4.76
2023-03-06T12:35:30.173Z,4.64
2023-03-06T12:38:24.046Z,4.56
2023-03-06T12:41:18.559Z,4.55
2023-03-06T12:44:16.941Z,4.62
2023-03-06T12:46:54.950Z,4.57
2023-03-06T12:49:32.908Z,4.58
2023-03-06T12:52:01.213Z,4.65
2023-03-06T12:54:30.517Z,4.58
2023-03-06T12:56:59.748Z,4.58
2023-03-06T12:59:44.558Z,4.65
2023-03-06T13:02:33.982Z,4.57
2023-03-06T13:05:13.034Z,4.65
2023-03-06T13:08:02.068Z,4.63
2023-03-06T13:10:32.045Z,4.61
2023-03-06T13:13:01.471Z,4.60
2023-03-06T13:15:38.730Z,4.49
2023-03-06T13:18:23.491Z,4.50
2023-03-06T13:20:55.875Z,4.48
2023-03-06T13:23:42.624Z,4.34
2023-03-06T13:26:09.077Z,4.30
2023-03-06T13:28:50.356Z,4.22
2023-03-06T13:31:54.600Z,4.25
2023-03-06T13:34:41.402Z,4.17
2023-03-06T13:37:14.314Z,4.09
2023-03-06T13:39:55.734Z,4.12
2023-03-06T13:42:34.206Z,4.13
2023-03-06T13:45:17.212Z,4.13
2023-03-06T13:48:10.968Z,3.97
2023-03-06T13:50:39.794Z,4.03
2023-03-06T13:53:24.850Z,3.94
2023-03-06T13:56:04.220Z,3.98
2023-03-06T13:58:38.373Z,4.03
2023-03-06T14:01:28.129Z,4.11
2023-03-06T14:04:00.314Z,4.17
2023-03-06T14:06:53.008Z,4.02
2023-03-06T14:09:44.346Z,4.00
2023-03-06T14:12:28.501Z,4.02
2023-03-06T14:15:02.787Z,4.09
2023-03-06T14:17:30.686Z,4.08
2023-03-06T14:20:20.849Z,4.00
2023-03-06T14:22:47.308Z,4.06
2023-03-06T14:25:31.189Z,4.02
2023-03-06T14:28:05.713Z,4.02
2023-03-06T14:30:49.335Z,4.17
2023-03-06T14:33:46.409Z,4.20
2023-03-06T14:36:15.927Z,4.22
2023-03-06T14:38:54.588Z,4.34
2023-03-06T14:41:35.008Z,4.26
2023-03-06T14:44:28.292Z,4.40
2023-03-06T14:46:56.966Z,4.24
2023-03-06T14:49:25.595Z,4.31
2023-03-06T14:52:00.429Z,4.29
2023-03-06T14:54:32.585Z,4.20
2023-03-06T14:57:13.040Z,4.12
2023-03-06T14:59:44.811Z,4.21
2023-03-06T15:02:18.718Z,4.13
2023-03-06T15:04:51.221Z,4.08
2023-03-06T15:07:22.531Z,4.04
2023-03-06T15:09:51.975Z,4.21
2023-03-06T15:12:18.460Z,4.12
2023-03-06T15:15:02.665Z,4.07
2023-03-06T15:17:30.496Z,4.05
2023-03-06T15:19:59.659Z,3.93
2023-03-06T15:22:40.116Z,3.99
2023-03-06T15:25:31.819Z,3.93
2023-03-06T15:28:00.135Z,3.97
2023-03-06T15:30:30.223Z,3.95
2023-03-06T15:33:26.156Z,3.97
2023-03-06T15:35:54.897Z,3.92
2023-03-06T15:38:31.410Z,3.80
2023-03-06T15:41:00.649Z,3.80
2023-03-06T15:43:32.058Z,3.83
2023-03-06T15:46:01.063Z,3.72
2023-03-06T15:48:28.665Z,3.64
2023-03-06T15:50:55.142Z,3.52
2023-03-06T15:53:22.087Z,3.42
2023-03-06T15:55:50.053Z,3.34
2023-03-06T15:58:20.598Z,3.22
2023-03-06T16:00:47.203Z,3.09
2023-03-06T16:03:13.652Z,2.98
2023-03-06T16:05:40.154Z,3.03
2023-03-06T16:08:06.743Z,2.97
2023-03-06T16:10:37.800Z,2.97
2023-03-06T16:13:08.839Z,2.94
2023-03-06T16:15:39.567Z,2.89
2023-03-06T16:18:06.764Z,2.83
2023-03-06T16:20:36.495Z,2.79
2023-03-06T16:23:07.743Z,2.88
2023-03-06T16:25:34.606Z,2.99
2023-03-06T16:28:03.139Z,2.98
2023-03-06T16:30:32.134Z,2.92
2023-03-06T16:32:59.048Z,2.79
2023-03-06T16:35:27.115Z,2.84
2023-03-06T16:37:54.009Z,2.84
2023-03-06T16:40:25.499Z,2.87
2023-03-06T16:42:54.065Z,2.91
2023-03-06T16:45:22.933Z,2.86
2023-03-06T16:47:50.062Z,2.87
2023-03-06T16:50:28.063Z,2.85
2023-03-06T16:52:56.849Z,2.83
2023-03-06T16:55:25.448Z,2.85
2023-03-06T16:57:52.012Z,2.80
2023-03-06T17:00:20.285Z,2.82
2023-03-06T17:02:50.937Z,2.82
2023-03-06T17:05:18.738Z,2.85
2023-03-06T17:07:46.490Z,2.81
2023-03-06T17:10:15.366Z,2.80
2023-03-06T17:12:42.840Z,2.72
2023-03-06T17:15:11.262Z,2.69
2023-03-06T17:17:38.057Z,2.66
2023-03-06T17:20:06.998Z,2.63
2023-03-06T17:22:35.302Z,2.55
2023-03-06T17:25:03.371Z,2.53
2023-03-06T17:27:30.090Z,2.52
2023-03-06T17:29:58.103Z,2.51
2023-03-06T17:32:25.190Z,2.48
2023-03-06T17:34:53.994Z,2.42
2023-03-06T17:37:21.017Z,2.17
2023-03-06T17:39:47.827Z,2.06
2023-03-06T17:42:14.249Z,2.00
2023-03-06T17:44:41.368Z,1.95
2023-03-06T17:47:08.161Z,1.95
2023-03-06T17:49:34.753Z,1.94
2023-03-06T17:52:02.814Z,1.93
2023-03-06T17:54:30.042Z,1.93
2023-03-06T17:57:00.902Z,1.92
2023-03-06T17:59:28.855Z,1.92
2023-03-06T18:01:58.927Z,1.88
2023-03-06T18:04:27.244Z,1.87
2023-03-06T18:06:54.007Z,1.86
2023-03-06T18:09:20.596Z,1.83
2023-03-06T18:11:47.406Z,1.84
2023-03-06T18:14:13.949Z,1.86
2023-03-06T18:16:41.045Z,1.83
2023-03-06T18:19:09.814Z,1.85
2023-03-06T18:21:36.517Z,1.80
2023-03-06T18:24:03.004Z,1.81
2023-03-06T18:26:30.002Z,1.82
2023-03-06T18:29:01.835Z,1.82
2023-03-06T18:31:34.920Z,1.88
2023-03-06T18:34:07.983Z,1.87
2023-03-06T18:36:36.412Z,1.88
2023-03-06T18:39:05.877Z,1.84
2023-03-06T18:41:32.363Z,1.83
2023-03-06T18:44:01.150Z,1.83
2023-03-06T18:46:34.258Z,1.83
2023-03-06T18:49:01.541Z,1.78
2023-03-06T18:51:28.011Z,1.84
2023-03-06T18:53:59.637Z,1.75
2023-03-06T18:56:26.703Z,1.70
2023-03-06T18:58:54.138Z,1.70
2023-03-06T19:01:22.198Z,1.62
2023-03-06T19:03:49.883Z,1.58
2023-03-06T19:06:17.551Z,1.49
2023-03-06T19:08:44.618Z,1.42
2023-03-06T19:11:14.357Z,1.36
2023-03-06T19:13:41.314Z,1.31
2023-03-06T19:16:08.491Z,1.29
2023-03-06T19:18:35.571Z,1.22
2023-03-06T19:21:28.754Z,1.19
2023-03-06T19:23:56.093Z,1.17
2023-03-06T19:26:23.151Z,1.10
2023-03-06T19:28:50.508Z,1.12
2023-03-06T19:31:20.004Z,1.37
2023-03-06T19:33:48.067Z,1.42
2023-03-06T19:36:17.000Z,1.43
2023-03-06T19:38:44.003Z,1.48
2023-03-06T19:41:13.613Z,1.59
2023-03-06T19:43:41.335Z,1.53
2023-03-06T19:46:12.502Z,1.69
2023-03-06T19:48:40.516Z,1.68
2023-03-06T19:51:07.649Z,1.70
2023-03-06T19:53:38.786Z,1.72
2023-03-06T19:56:17.480Z,1.76
2023-03-06T19:58:43.944Z,1.81
2023-03-06T20:01:13.345Z,1.83
2023-03-06T20:03:40.764Z,1.95
2023-03-06T20:06:11.827Z,1.85
2023-03-06T20:08:38.798Z,1.73
2023-03-06T20:11:06.194Z,1.74
2023-03-06T20:13:32.929Z,1.76
2023-03-06T20:16:03.480Z,1.80
2023-03-06T20:18:30.074Z,1.79
2023-03-06T20:21:01.030Z,1.65
2023-03-06T20:23:28.656Z,1.72
2023-03-06T20:25:55.179Z,1.67
2023-03-06T20:28:22.412Z,1.72
2023-03-06T20:30:48.980Z,1.66
2023-03-06T20:33:17.097Z,1.59
2023-03-06T20:35:44.204Z,1.72
2023-03-06T20:38:11.070Z,1.71
2023-03-06T20:40:41.509Z,1.75
2023-03-06T20:43:08.315Z,1.76
2023-03-06T20:45:35.484Z,1.86
2023-03-06T20:48:01.923Z,1.87
2023-03-06T20:50:28.678Z,1.90
2023-03-06T20:52:56.502Z,1.81
2023-03-06T20:55:23.437Z,1.89
2023-03-06T20:57:51.208Z,1.84
2023-03-06T21:00:19.317Z,1.99
2023-03-06T21:02:45.679Z,1.94
2023-03-06T21:05:13.015Z,1.91
2023-03-06T21:07:39.667Z,1.86
2023-03-06T21:10:07.330Z,1.85
2023-03-06T21:12:33.780Z,1.88
2023-03-06T21:15:00.710Z,1.96
2023-03-06T21:17:27.456Z,1.91
2023-03-06T21:19:53.988Z,1.80
2023-03-06T21:22:20.385Z,1.83
2023-03-06T21:24:47.190Z,1.77
2023-03-06T21:27:13.599Z,1.73
2023-03-06T21:29:40.166Z,1.70
2023-03-06T21:32:06.599Z,1.72
2023-03-06T21:34:33.210Z,1.67
2023-03-06T21:36:59.602Z,1.69
2023-03-06T21:39:26.056Z,1.66
2023-03-06T21:41:52.654Z,1.66
2023-03-06T21:44:19.565Z,1.55
2023-03-06T21:46:46.058Z,1.55
2023-03-06T21:49:12.450Z,1.53
2023-03-06T21:51:39.511Z,1.41
2023-03-06T21:54:06.497Z,1.45
2023-03-06T21:56:33.438Z,1.40
2023-03-06T21:58:59.937Z,1.52
2023-03-06T22:01:28.899Z,1.44
2023-03-06T22:03:55.804Z,1.42
2023-03-06T22:06:25.677Z,1.32
2023-03-06T22:08:52.474Z,1.37
2023-03-06T22:11:20.763Z,1.46
2023-03-06T22:13:48.206Z,1.39
2023-03-06T22:16:15.766Z,1.43
2023-03-06T22:18:47.029Z,1.36
2023-03-06T22:21:16.398Z,1.41
2023-03-06T22:23:42.986Z,1.45
2023-03-06T22:26:12.615Z,1.39
2023-03-06T22:28:40.447Z,1.36
2023-03-06T22:31:11.949Z,1.35
2023-03-06T22:33:39.238Z,1.37
2023-03-06T22:36:11.950Z,1.29
2023-03-06T22:38:40.337Z,1.35
2023-03-06T22:41:07.855Z,1.40
2023-03-06T22:43:35.621Z,1.32
2023-03-06T22:46:07.232Z,1.33
2023-03-06T22:48:34.198Z,1.35
2023-03-06T22:51:06.046Z,1.34
2023-03-06T22:53:33.461Z,1.38
2023-03-06T22:56:01.753Z,1.32
2023-03-06T22:58:34.168Z,1.40
2023-03-06T23:01:25.489Z,1.36
2023-03-06T23:03:54.456Z,1.30
2023-03-06T23:06:24.792Z,1.36
2023-03-06T23:08:57.186Z,1.35
2023-03-06T23:11:25.049Z,1.34
2023-03-06T23:13:53.111Z,1.38
2023-03-06T23:16:20.794Z,1.36
2023-03-06T23:18:47.227Z,1.43
2023-03-06T23:21:16.434Z,1.45
2023-03-06T23:23:44.118Z,1.43
2023-03-06T23:26:13.880Z,1.43
2023-03-06T23:28:41.071Z,1.50
2023-03-06T23:31:20.034Z,1.45
2023-03-06T23:33:46.490Z,1.49
2023-03-06T23:36:15.476Z,1.51
2023-03-06T23:38:42.501Z,1.42
2023-03-06T23:41:14.650Z,1.46
2023-03-06T23:43:41.673Z,1.50
2023-03-06T23:46:08.316Z,1.52
2023-03-06T23:48:36.492Z,1.52
2023-03-06T23:51:12.805Z,1.57
2023-03-06T23:53:39.847Z,1.63
2023-03-06T23:56:07.499Z,1.64
2023-03-06T23:58:34.807Z,1.70
